sensor_id;sensor_type;location;lat;lon;timestamp;P1;durP1;ratioP1;P2;durP2;ratioP2
22646;SDS011;11490;42.726;23.268;2023-04-25T00:00:53;4.30;;;2.28;;
22646;SDS011;11490;42.726;23.268;2023-04-25T00:03:19;2.55;;;2.28;;
22646;SDS011;11490;42.726;23.268;2023-04-25T00:05:45;2.88;;;2.28;;
22646;SDS011;11490;42.726;23.268;2023-04-25T00:08:11;3.50;;;2.78;;
22646;SDS011;11490;42.726;23.268;2023-04-25T00:10:36;3.85;;;2.38;;
22646;SDS011;11490;42.726;23.268;2023-04-25T00:13:02;2.75;;;2.20;;
22646;SDS011;11490;42.726;23.268;2023-04-25T00:15:28;5.30;;;2.97;;
22646;SDS011;11490;42.726;23.268;2023-04-25T00:17:55;4.07;;;3.08;;
22646;SDS011;11490;42.726;23.268;2023-04-25T00:20:21;4.05;;;2.75;;
22646;SDS011;11490;42.726;23.268;2023-04-25T00:22:48;3.85;;;3.38;;
22646;SDS011;11490;42.726;23.268;2023-04-25T00:25:14;5.07;;;3.25;;
22646;SDS011;11490;42.726;23.268;2023-04-25T00:27:39;4.63;;;2.72;;
22646;SDS011;11490;42.726;23.268;2023-04-25T00:30:06;5.40;;;3.05;;
22646;SDS011;11490;42.726;23.268;2023-04-25T00:32:32;6.25;;;3.50;;
22646;SDS011;11490;42.726;23.268;2023-04-25T00:34:58;5.45;;;3.45;;
22646;SDS011;11490;42.726;23.268;2023-04-25T00:37:23;3.40;;;2.70;;
22646;SDS011;11490;42.726;23.268;2023-04-25T00:39:48;3.15;;;2.63;;
22646;SDS011;11490;42.726;23.268;2023-04-25T00:42:14;2.90;;;2.47;;
22646;SDS011;11490;42.726;23.268;2023-04-25T00:44:40;3.17;;;2.03;;
22646;SDS011;11490;42.726;23.268;2023-04-25T00:47:06;6.40;;;2.78;;
22646;SDS011;11490;42.726;23.268;2023-04-25T00:49:32;3.05;;;1.83;;
22646;SDS011;11490;42.726;23.268;2023-04-25T00:51:57;3.45;;;2.13;;
22646;SDS011;11490;42.726;23.268;2023-04-25T00:54:23;2.90;;;2.17;;
22646;SDS011;11490;42.726;23.268;2023-04-25T00:56:48;5.82;;;2.40;;
22646;SDS011;11490;42.726;23.268;2023-04-25T00:59:14;2.17;;;1.75;;
22646;SDS011;11490;42.726;23.268;2023-04-25T01:01:40;6.78;;;3.00;;
22646;SDS011;11490;42.726;23.268;2023-04-25T01:04:06;2.72;;;2.03;;
22646;SDS011;11490;42.726;23.268;2023-04-25T01:06:32;2.35;;;1.85;;
22646;SDS011;11490;42.726;23.268;2023-04-25T01:08:57;2.15;;;1.95;;
22646;SDS011;11490;42.726;23.268;2023-04-25T01:11:24;6.57;;;2.47;;
22646;SDS011;11490;42.726;23.268;2023-04-25T01:13:50;1.70;;;1.52;;
22646;SDS011;11490;42.726;23.268;2023-04-25T01:16:15;2.20;;;1.80;;
22646;SDS011;11490;42.726;23.268;2023-04-25T01:18:41;3.00;;;2.15;;
22646;SDS011;11490;42.726;23.268;2023-04-25T01:21:11;2.85;;;2.38;;
22646;SDS011;11490;42.726;23.268;2023-04-25T01:23:38;2.60;;;2.10;;
22646;SDS011;11490;42.726;23.268;2023-04-25T01:26:05;2.83;;;2.50;;
22646;SDS011;11490;42.726;23.268;2023-04-25T01:28:31;2.60;;;2.22;;
22646;SDS011;11490;42.726;23.268;2023-04-25T01:30:58;2.72;;;2.40;;
22646;SDS011;11490;42.726;23.268;2023-04-25T01:33:24;3.15;;;2.30;;
22646;SDS011;11490;42.726;23.268;2023-04-25T01:35:50;3.45;;;2.65;;
22646;SDS011;11490;42.726;23.268;2023-04-25T01:38:15;3.25;;;2.45;;
22646;SDS011;11490;42.726;23.268;2023-04-25T01:40:41;4.40;;;2.40;;
22646;SDS011;11490;42.726;23.268;2023-04-25T01:43:07;2.85;;;2.15;;
22646;SDS011;11490;42.726;23.268;2023-04-25T01:45:36;3.13;;;2.40;;
22646;SDS011;11490;42.726;23.268;2023-04-25T01:48:05;4.88;;;3.45;;
22646;SDS011;11490;42.726;23.268;2023-04-25T01:50:30;8.75;;;4.63;;
22646;SDS011;11490;42.726;23.268;2023-04-25T01:52:56;6.72;;;3.85;;
22646;SDS011;11490;42.726;23.268;2023-04-25T01:55:21;5.32;;;3.88;;
22646;SDS011;11490;42.726;23.268;2023-04-25T01:57:47;8.73;;;4.53;;
22646;SDS011;11490;42.726;23.268;2023-04-25T02:00:12;7.50;;;4.43;;
22646;SDS011;11490;42.726;23.268;2023-04-25T02:02:38;5.95;;;4.10;;
22646;SDS011;11490;42.726;23.268;2023-04-25T02:05:04;6.57;;;4.20;;
22646;SDS011;11490;42.726;23.268;2023-04-25T02:07:29;5.93;;;4.07;;
22646;SDS011;11490;42.726;23.268;2023-04-25T02:09:55;4.65;;;3.95;;
22646;SDS011;11490;42.726;23.268;2023-04-25T02:12:20;11.52;;;4.88;;
22646;SDS011;11490;42.726;23.268;2023-04-25T02:14:46;7.57;;;4.60;;
22646;SDS011;11490;42.726;23.268;2023-04-25T02:17:11;6.93;;;4.85;;
22646;SDS011;11490;42.726;23.268;2023-04-25T02:19:37;7.50;;;5.40;;
22646;SDS011;11490;42.726;23.268;2023-04-25T02:22:03;9.00;;;5.28;;
22646;SDS011;11490;42.726;23.268;2023-04-25T02:24:28;5.80;;;4.90;;
22646;SDS011;11490;42.726;23.268;2023-04-25T02:26:54;7.30;;;4.57;;
22646;SDS011;11490;42.726;23.268;2023-04-25T02:29:21;8.98;;;5.32;;
22646;SDS011;11490;42.726;23.268;2023-04-25T02:31:46;8.18;;;5.38;;
22646;SDS011;11490;42.726;23.268;2023-04-25T02:34:11;5.35;;;3.78;;
22646;SDS011;11490;42.726;23.268;2023-04-25T02:36:37;9.70;;;4.95;;
22646;SDS011;11490;42.726;23.268;2023-04-25T02:39:02;6.47;;;4.70;;
22646;SDS011;11490;42.726;23.268;2023-04-25T02:41:28;18.88;;;15.27;;
22646;SDS011;11490;42.726;23.268;2023-04-25T02:43:53;15.02;;;9.75;;
22646;SDS011;11490;42.726;23.268;2023-04-25T02:46:19;15.38;;;9.73;;
22646;SDS011;11490;42.726;23.268;2023-04-25T02:48:45;17.33;;;9.48;;
22646;SDS011;11490;42.726;23.268;2023-04-25T02:51:10;10.13;;;8.10;;
22646;SDS011;11490;42.726;23.268;2023-04-25T02:53:35;14.80;;;8.20;;
22646;SDS011;11490;42.726;23.268;2023-04-25T02:56:01;9.50;;;6.30;;
22646;SDS011;11490;42.726;23.268;2023-04-25T02:58:26;8.77;;;5.93;;
22646;SDS011;11490;42.726;23.268;2023-04-25T03:00:52;12.23;;;6.95;;
22646;SDS011;11490;42.726;23.268;2023-04-25T03:03:17;11.35;;;5.75;;
22646;SDS011;11490;42.726;23.268;2023-04-25T03:05:46;10.20;;;5.47;;
22646;SDS011;11490;42.726;23.268;2023-04-25T03:08:11;8.73;;;6.07;;
22646;SDS011;11490;42.726;23.268;2023-04-25T03:10:37;9.57;;;7.15;;
22646;SDS011;11490;42.726;23.268;2023-04-25T03:13:03;8.20;;;5.95;;
22646;SDS011;11490;42.726;23.268;2023-04-25T03:15:29;10.13;;;6.80;;
22646;SDS011;11490;42.726;23.268;2023-04-25T03:17:56;9.00;;;6.57;;
22646;SDS011;11490;42.726;23.268;2023-04-25T03:20:21;8.90;;;5.80;;
22646;SDS011;11490;42.726;23.268;2023-04-25T03:22:47;8.38;;;5.22;;
22646;SDS011;11490;42.726;23.268;2023-04-25T03:25:12;9.27;;;5.30;;
22646;SDS011;11490;42.726;23.268;2023-04-25T03:27:37;11.85;;;5.97;;
22646;SDS011;11490;42.726;23.268;2023-04-25T03:30:03;9.05;;;6.05;;
22646;SDS011;11490;42.726;23.268;2023-04-25T03:32:29;8.18;;;5.75;;
22646;SDS011;11490;42.726;23.268;2023-04-25T03:34:54;7.40;;;4.85;;
22646;SDS011;11490;42.726;23.268;2023-04-25T03:37:20;7.53;;;4.85;;
22646;SDS011;11490;42.726;23.268;2023-04-25T03:39:45;7.18;;;4.75;;
22646;SDS011;11490;42.726;23.268;2023-04-25T03:42:11;9.07;;;5.90;;
22646;SDS011;11490;42.726;23.268;2023-04-25T03:44:36;9.63;;;5.85;;
22646;SDS011;11490;42.726;23.268;2023-04-25T03:47:02;9.82;;;6.50;;
22646;SDS011;11490;42.726;23.268;2023-04-25T03:49:27;14.13;;;5.85;;
22646;SDS011;11490;42.726;23.268;2023-04-25T03:51:52;10.32;;;6.70;;
22646;SDS011;11490;42.726;23.268;2023-04-25T03:54:18;9.50;;;6.05;;
22646;SDS011;11490;42.726;23.268;2023-04-25T03:56:43;10.60;;;7.85;;
22646;SDS011;11490;42.726;23.268;2023-04-25T03:59:08;10.45;;;6.20;;
22646;SDS011;11490;42.726;23.268;2023-04-25T04:01:34;10.48;;;7.00;;
22646;SDS011;11490;42.726;23.268;2023-04-25T04:04:00;9.88;;;6.68;;
22646;SDS011;11490;42.726;23.268;2023-04-25T04:06:25;11.60;;;6.63;;
22646;SDS011;11490;42.726;23.268;2023-04-25T04:08:51;9.95;;;5.72;;
22646;SDS011;11490;42.726;23.268;2023-04-25T04:11:17;8.00;;;5.15;;
22646;SDS011;11490;42.726;23.268;2023-04-25T04:13:42;8.88;;;5.57;;
22646;SDS011;11490;42.726;23.268;2023-04-25T04:16:07;8.63;;;5.55;;
22646;SDS011;11490;42.726;23.268;2023-04-25T04:18:33;6.90;;;5.07;;
22646;SDS011;11490;42.726;23.268;2023-04-25T04:20:59;7.93;;;5.30;;
22646;SDS011;11490;42.726;23.268;2023-04-25T04:23:24;9.02;;;5.30;;
22646;SDS011;11490;42.726;23.268;2023-04-25T04:25:52;8.65;;;5.18;;
22646;SDS011;11490;42.726;23.268;2023-04-25T04:28:19;15.68;;;5.32;;
22646;SDS011;11490;42.726;23.268;2023-04-25T04:30:45;8.15;;;4.97;;
22646;SDS011;11490;42.726;23.268;2023-04-25T04:33:11;10.88;;;5.97;;
22646;SDS011;11490;42.726;23.268;2023-04-25T04:35:37;7.70;;;5.63;;
22646;SDS011;11490;42.726;23.268;2023-04-25T04:38:02;9.38;;;5.53;;
22646;SDS011;11490;42.726;23.268;2023-04-25T04:40:28;7.07;;;4.68;;
22646;SDS011;11490;42.726;23.268;2023-04-25T04:42:55;9.25;;;4.78;;
22646;SDS011;11490;42.726;23.268;2023-04-25T04:45:22;6.97;;;4.90;;
22646;SDS011;11490;42.726;23.268;2023-04-25T04:47:48;10.32;;;5.63;;
22646;SDS011;11490;42.726;23.268;2023-04-25T04:50:17;7.78;;;5.55;;
22646;SDS011;11490;42.726;23.268;2023-04-25T04:52:43;12.18;;;6.78;;
22646;SDS011;11490;42.726;23.268;2023-04-25T04:55:08;8.85;;;5.03;;
22646;SDS011;11490;42.726;23.268;2023-04-25T04:57:34;8.68;;;5.28;;
22646;SDS011;11490;42.726;23.268;2023-04-25T05:00:00;6.25;;;4.22;;
22646;SDS011;11490;42.726;23.268;2023-04-25T05:02:26;6.35;;;4.15;;
22646;SDS011;11490;42.726;23.268;2023-04-25T05:04:51;5.07;;;3.88;;
22646;SDS011;11490;42.726;23.268;2023-04-25T05:07:17;5.95;;;3.40;;
22646;SDS011;11490;42.726;23.268;2023-04-25T05:09:43;5.85;;;4.35;;
22646;SDS011;11490;42.726;23.268;2023-04-25T05:12:09;6.32;;;4.05;;
22646;SDS011;11490;42.726;23.268;2023-04-25T05:14:35;6.55;;;4.55;;
22646;SDS011;11490;42.726;23.268;2023-04-25T05:17:00;7.85;;;3.83;;
22646;SDS011;11490;42.726;23.268;2023-04-25T05:19:26;7.50;;;4.50;;
22646;SDS011;11490;42.726;23.268;2023-04-25T05:21:51;5.05;;;4.07;;
22646;SDS011;11490;42.726;23.268;2023-04-25T05:24:17;10.63;;;4.25;;
22646;SDS011;11490;42.726;23.268;2023-04-25T05:26:42;6.82;;;4.70;;
22646;SDS011;11490;42.726;23.268;2023-04-25T05:29:08;7.25;;;4.55;;
22646;SDS011;11490;42.726;23.268;2023-04-25T05:31:33;6.18;;;4.85;;
22646;SDS011;11490;42.726;23.268;2023-04-25T05:33:59;7.40;;;4.82;;
22646;SDS011;11490;42.726;23.268;2023-04-25T05:36:24;7.10;;;4.55;;
22646;SDS011;11490;42.726;23.268;2023-04-25T05:38:50;6.38;;;4.18;;
22646;SDS011;11490;42.726;23.268;2023-04-25T05:41:16;5.53;;;4.05;;
22646;SDS011;11490;42.726;23.268;2023-04-25T05:43:41;4.80;;;3.78;;
22646;SDS011;11490;42.726;23.268;2023-04-25T05:46:12;4.75;;;4.10;;
22646;SDS011;11490;42.726;23.268;2023-04-25T05:48:37;6.03;;;3.67;;
22646;SDS011;11490;42.726;23.268;2023-04-25T05:51:03;5.35;;;4.20;;
22646;SDS011;11490;42.726;23.268;2023-04-25T05:53:28;10.48;;;3.95;;
22646;SDS011;11490;42.726;23.268;2023-04-25T05:55:54;6.93;;;4.38;;
22646;SDS011;11490;42.726;23.268;2023-04-25T05:58:19;5.53;;;4.35;;
22646;SDS011;11490;42.726;23.268;2023-04-25T06:00:45;6.25;;;4.93;;
22646;SDS011;11490;42.726;23.268;2023-04-25T06:03:11;5.90;;;4.30;;
22646;SDS011;11490;42.726;23.268;2023-04-25T06:05:38;6.38;;;3.58;;
22646;SDS011;11490;42.726;23.268;2023-04-25T06:08:04;6.55;;;4.18;;
22646;SDS011;11490;42.726;23.268;2023-04-25T06:10:29;4.90;;;3.65;;
22646;SDS011;11490;42.726;23.268;2023-04-25T06:12:55;5.75;;;4.20;;
22646;SDS011;11490;42.726;23.268;2023-04-25T06:15:20;5.80;;;4.13;;
22646;SDS011;11490;42.726;23.268;2023-04-25T06:17:45;8.82;;;4.28;;
22646;SDS011;11490;42.726;23.268;2023-04-25T06:20:11;6.65;;;4.55;;
22646;SDS011;11490;42.726;23.268;2023-04-25T06:22:36;5.68;;;4.50;;
22646;SDS011;11490;42.726;23.268;2023-04-25T06:25:02;8.05;;;4.63;;
22646;SDS011;11490;42.726;23.268;2023-04-25T06:27:29;7.20;;;4.70;;
22646;SDS011;11490;42.726;23.268;2023-04-25T06:29:54;7.18;;;4.53;;
22646;SDS011;11490;42.726;23.268;2023-04-25T06:32:20;8.30;;;5.68;;
22646;SDS011;11490;42.726;23.268;2023-04-25T06:34:45;6.60;;;4.72;;
22646;SDS011;11490;42.726;23.268;2023-04-25T06:37:11;6.45;;;4.57;;
22646;SDS011;11490;42.726;23.268;2023-04-25T06:39:36;9.40;;;5.30;;
22646;SDS011;11490;42.726;23.268;2023-04-25T06:42:02;9.85;;;5.72;;
22646;SDS011;11490;42.726;23.268;2023-04-25T06:44:27;7.65;;;5.47;;
22646;SDS011;11490;42.726;23.268;2023-04-25T06:46:54;9.70;;;5.85;;
22646;SDS011;11490;42.726;23.268;2023-04-25T06:49:20;12.95;;;6.07;;
22646;SDS011;11490;42.726;23.268;2023-04-25T06:51:51;9.18;;;6.68;;
22646;SDS011;11490;42.726;23.268;2023-04-25T06:54:16;10.55;;;6.65;;
22646;SDS011;11490;42.726;23.268;2023-04-25T06:56:42;11.50;;;7.15;;
22646;SDS011;11490;42.726;23.268;2023-04-25T06:59:07;10.18;;;7.13;;
22646;SDS011;11490;42.726;23.268;2023-04-25T07:01:34;8.95;;;6.13;;
22646;SDS011;11490;42.726;23.268;2023-04-25T07:04:00;8.85;;;6.03;;
22646;SDS011;11490;42.726;23.268;2023-04-25T07:06:25;8.85;;;5.55;;
22646;SDS011;11490;42.726;23.268;2023-04-25T07:08:51;10.70;;;7.78;;
22646;SDS011;11490;42.726;23.268;2023-04-25T07:11:17;10.18;;;7.13;;
22646;SDS011;11490;42.726;23.268;2023-04-25T07:13:42;7.72;;;6.05;;
22646;SDS011;11490;42.726;23.268;2023-04-25T07:16:07;11.73;;;7.30;;
22646;SDS011;11490;42.726;23.268;2023-04-25T07:18:33;7.70;;;5.80;;
22646;SDS011;11490;42.726;23.268;2023-04-25T07:20:58;11.13;;;7.10;;
22646;SDS011;11490;42.726;23.268;2023-04-25T07:23:24;10.30;;;6.60;;
22646;SDS011;11490;42.726;23.268;2023-04-25T07:25:49;9.23;;;6.20;;
22646;SDS011;11490;42.726;23.268;2023-04-25T07:28:15;12.27;;;6.57;;
22646;SDS011;11490;42.726;23.268;2023-04-25T07:30:40;9.50;;;5.88;;
22646;SDS011;11490;42.726;23.268;2023-04-25T07:33:06;9.13;;;6.70;;
22646;SDS011;11490;42.726;23.268;2023-04-25T07:35:31;8.10;;;6.25;;
22646;SDS011;11490;42.726;23.268;2023-04-25T07:37:56;10.40;;;6.93;;
22646;SDS011;11490;42.726;23.268;2023-04-25T07:40:22;12.30;;;7.68;;
22646;SDS011;11490;42.726;23.268;2023-04-25T07:42:47;11.68;;;7.47;;
22646;SDS011;11490;42.726;23.268;2023-04-25T07:45:13;11.27;;;7.47;;
22646;SDS011;11490;42.726;23.268;2023-04-25T07:47:38;9.73;;;6.22;;
22646;SDS011;11490;42.726;23.268;2023-04-25T07:50:04;13.27;;;7.03;;
22646;SDS011;11490;42.726;23.268;2023-04-25T07:52:29;8.05;;;6.13;;
22646;SDS011;11490;42.726;23.268;2023-04-25T07:54:55;13.95;;;6.72;;
22646;SDS011;11490;42.726;23.268;2023-04-25T07:57:20;12.95;;;7.18;;
22646;SDS011;11490;42.726;23.268;2023-04-25T07:59:46;9.55;;;5.97;;
22646;SDS011;11490;42.726;23.268;2023-04-25T08:02:14;10.35;;;6.82;;
22646;SDS011;11490;42.726;23.268;2023-04-25T08:04:39;9.07;;;6.40;;
22646;SDS011;11490;42.726;23.268;2023-04-25T08:07:05;13.43;;;7.53;;
22646;SDS011;11490;42.726;23.268;2023-04-25T08:09:30;11.35;;;6.05;;
22646;SDS011;11490;42.726;23.268;2023-04-25T08:11:59;7.13;;;5.15;;
22646;SDS011;11490;42.726;23.268;2023-04-25T08:14:37;8.98;;;4.70;;
22646;SDS011;11490;42.726;23.268;2023-04-25T08:17:04;7.22;;;4.68;;
22646;SDS011;11490;42.726;23.268;2023-04-25T08:19:39;5.85;;;4.40;;
22646;SDS011;11490;42.726;23.268;2023-04-25T08:22:04;9.25;;;4.60;;
22646;SDS011;11490;42.726;23.268;2023-04-25T08:24:32;7.75;;;5.32;;
22646;SDS011;11490;42.726;23.268;2023-04-25T08:27:00;9.27;;;6.30;;
22646;SDS011;11490;42.726;23.268;2023-04-25T08:29:28;10.75;;;6.45;;
22646;SDS011;11490;42.726;23.268;2023-04-25T08:31:53;8.02;;;5.60;;
22646;SDS011;11490;42.726;23.268;2023-04-25T08:34:19;9.80;;;6.20;;
22646;SDS011;11490;42.726;23.268;2023-04-25T08:36:45;12.20;;;7.30;;
22646;SDS011;11490;42.726;23.268;2023-04-25T08:39:10;14.88;;;6.15;;
22646;SDS011;11490;42.726;23.268;2023-04-25T08:41:36;9.48;;;3.97;;
22646;SDS011;11490;42.726;23.268;2023-04-25T08:44:03;5.63;;;3.70;;
22646;SDS011;11490;42.726;23.268;2023-04-25T08:46:30;8.45;;;5.88;;
22646;SDS011;11490;42.726;23.268;2023-04-25T08:48:59;8.90;;;5.68;;
22646;SDS011;11490;42.726;23.268;2023-04-25T08:51:26;8.68;;;6.22;;
22646;SDS011;11490;42.726;23.268;2023-04-25T08:53:55;9.50;;;6.18;;
22646;SDS011;11490;42.726;23.268;2023-04-25T08:56:28;8.45;;;5.40;;
22646;SDS011;11490;42.726;23.268;2023-04-25T08:58:54;8.18;;;5.32;;
22646;SDS011;11490;42.726;23.268;2023-04-25T09:01:20;7.60;;;4.20;;
22646;SDS011;11490;42.726;23.268;2023-04-25T09:03:46;6.97;;;5.15;;
22646;SDS011;11490;42.726;23.268;2023-04-25T09:06:12;10.13;;;5.28;;
22646;SDS011;11490;42.726;23.268;2023-04-25T09:08:37;6.18;;;4.50;;
22646;SDS011;11490;42.726;23.268;2023-04-25T09:11:06;5.78;;;4.32;;
22646;SDS011;11490;42.726;23.268;2023-04-25T09:13:32;5.30;;;3.97;;
22646;SDS011;11490;42.726;23.268;2023-04-25T09:15:58;4.10;;;3.17;;
22646;SDS011;11490;42.726;23.268;2023-04-25T09:18:24;5.72;;;4.80;;
22646;SDS011;11490;42.726;23.268;2023-04-25T09:20:54;5.85;;;4.35;;
22646;SDS011;11490;42.726;23.268;2023-04-25T09:23:21;6.07;;;4.43;;
22646;SDS011;11490;42.726;23.268;2023-04-25T09:25:48;5.93;;;4.07;;
22646;SDS011;11490;42.726;23.268;2023-04-25T09:28:24;6.03;;;4.28;;
22646;SDS011;11490;42.726;23.268;2023-04-25T09:30:59;4.47;;;3.53;;
22646;SDS011;11490;42.726;23.268;2023-04-25T09:33:28;4.22;;;2.95;;
22646;SDS011;11490;42.726;23.268;2023-04-25T09:36:00;3.65;;;2.75;;
22646;SDS011;11490;42.726;23.268;2023-04-25T09:38:39;4.10;;;2.97;;
22646;SDS011;11490;42.726;23.268;2023-04-25T09:41:09;3.03;;;2.22;;
22646;SDS011;11490;42.726;23.268;2023-04-25T09:43:36;2.85;;;1.90;;
22646;SDS011;11490;42.726;23.268;2023-04-25T09:46:02;2.20;;;1.98;;
22646;SDS011;11490;42.726;23.268;2023-04-25T09:48:33;5.35;;;2.22;;
22646;SDS011;11490;42.726;23.268;2023-04-25T09:53:41;2.60;;;2.25;;
22646;SDS011;11490;42.726;23.268;2023-04-25T09:56:09;2.60;;;1.90;;
22646;SDS011;11490;42.726;23.268;2023-04-25T09:58:36;2.50;;;1.90;;
22646;SDS011;11490;42.726;23.268;2023-04-25T10:01:04;2.38;;;1.50;;
22646;SDS011;11490;42.726;23.268;2023-04-25T10:03:31;3.08;;;1.98;;
22646;SDS011;11490;42.726;23.268;2023-04-25T10:05:59;2.65;;;1.75;;
22646;SDS011;11490;42.726;23.268;2023-04-25T10:08:31;1.92;;;1.63;;
22646;SDS011;11490;42.726;23.268;2023-04-25T10:10:59;2.40;;;1.80;;
22646;SDS011;11490;42.726;23.268;2023-04-25T10:13:26;1.88;;;1.60;;
22646;SDS011;11490;42.726;23.268;2023-04-25T10:15:53;2.60;;;1.85;;
22646;SDS011;11490;42.726;23.268;2023-04-25T10:18:19;2.20;;;1.45;;
22646;SDS011;11490;42.726;23.268;2023-04-25T10:20:46;2.72;;;1.65;;
22646;SDS011;11490;42.726;23.268;2023-04-25T10:23:14;1.58;;;1.25;;
22646;SDS011;11490;42.726;23.268;2023-04-25T10:25:42;2.28;;;1.65;;
22646;SDS011;11490;42.726;23.268;2023-04-25T10:28:08;1.55;;;1.40;;
22646;SDS011;11490;42.726;23.268;2023-04-25T10:30:33;1.48;;;1.38;;
22646;SDS011;11490;42.726;23.268;2023-04-25T10:32:59;1.35;;;1.10;;
22646;SDS011;11490;42.726;23.268;2023-04-25T10:35:29;1.83;;;1.23;;
22646;SDS011;11490;42.726;23.268;2023-04-25T10:38:11;3.42;;;1.70;;
22646;SDS011;11490;42.726;23.268;2023-04-25T10:40:39;1.58;;;1.42;;
22646;SDS011;11490;42.726;23.268;2023-04-25T10:45:59;1.17;;;1.08;;
22646;SDS011;11490;42.726;23.268;2023-04-25T10:48:29;3.50;;;1.38;;
22646;SDS011;11490;42.726;23.268;2023-04-25T10:51:11;2.28;;;1.40;;
22646;SDS011;11490;42.726;23.268;2023-04-25T10:53:41;2.00;;;1.40;;
22646;SDS011;11490;42.726;23.268;2023-04-25T10:56:18;4.85;;;1.17;;
22646;SDS011;11490;42.726;23.268;2023-04-25T10:58:45;3.40;;;1.52;;
22646;SDS011;11490;42.726;23.268;2023-04-25T11:01:14;1.17;;;0.98;;
22646;SDS011;11490;42.726;23.268;2023-04-25T11:03:47;1.02;;;0.93;;
22646;SDS011;11490;42.726;23.268;2023-04-25T11:08:59;1.10;;;1.00;;
22646;SDS011;11490;42.726;23.268;2023-04-25T11:11:26;1.05;;;0.95;;
22646;SDS011;11490;42.726;23.268;2023-04-25T11:13:52;1.23;;;1.13;;
22646;SDS011;11490;42.726;23.268;2023-04-25T11:16:17;1.13;;;1.00;;
22646;SDS011;11490;42.726;23.268;2023-04-25T11:18:43;0.85;;;0.85;;
22646;SDS011;11490;42.726;23.268;2023-04-25T11:21:09;2.28;;;1.63;;
22646;SDS011;11490;42.726;23.268;2023-04-25T11:23:39;1.73;;;1.50;;
22646;SDS011;11490;42.726;23.268;2023-04-25T11:26:04;2.92;;;1.10;;
22646;SDS011;11490;42.726;23.268;2023-04-25T11:28:30;1.33;;;1.08;;
22646;SDS011;11490;42.726;23.268;2023-04-25T11:30:55;1.15;;;0.90;;
22646;SDS011;11490;42.726;23.268;2023-04-25T11:33:25;1.65;;;1.50;;
22646;SDS011;11490;42.726;23.268;2023-04-25T11:35:55;1.25;;;1.13;;
22646;SDS011;11490;42.726;23.268;2023-04-25T11:38:30;2.70;;;1.20;;
22646;SDS011;11490;42.726;23.268;2023-04-25T11:40:58;1.40;;;1.30;;
22646;SDS011;11490;42.726;23.268;2023-04-25T11:43:23;1.30;;;1.17;;
22646;SDS011;11490;42.726;23.268;2023-04-25T11:45:50;2.08;;;1.40;;
22646;SDS011;11490;42.726;23.268;2023-04-25T11:48:25;1.52;;;1.27;;
22646;SDS011;11490;42.726;23.268;2023-04-25T11:50:51;1.33;;;1.00;;
22646;SDS011;11490;42.726;23.268;2023-04-25T11:53:17;1.00;;;0.90;;
22646;SDS011;11490;42.726;23.268;2023-04-25T11:55:43;1.73;;;1.05;;
22646;SDS011;11490;42.726;23.268;2023-04-25T11:58:08;1.00;;;0.80;;
22646;SDS011;11490;42.726;23.268;2023-04-25T12:00:34;0.90;;;0.90;;
22646;SDS011;11490;42.726;23.268;2023-04-25T12:02:59;1.50;;;0.95;;
22646;SDS011;11490;42.726;23.268;2023-04-25T12:05:26;2.17;;;1.08;;
22646;SDS011;11490;42.726;23.268;2023-04-25T12:07:53;1.40;;;1.13;;
22646;SDS011;11490;42.726;23.268;2023-04-25T12:10:18;1.42;;;1.30;;
22646;SDS011;11490;42.726;23.268;2023-04-25T12:12:46;0.98;;;0.90;;
22646;SDS011;11490;42.726;23.268;2023-04-25T12:17:48;3.72;;;1.70;;
22646;SDS011;11490;42.726;23.268;2023-04-25T12:20:16;4.03;;;1.45;;
22646;SDS011;11490;42.726;23.268;2023-04-25T12:22:44;2.55;;;1.65;;
22646;SDS011;11490;42.726;23.268;2023-04-25T12:25:57;2.70;;;1.67;;
22646;SDS011;11490;42.726;23.268;2023-04-25T12:31:06;1.33;;;1.02;;
22646;SDS011;11490;42.726;23.268;2023-04-25T12:33:35;1.33;;;1.23;;
22646;SDS011;11490;42.726;23.268;2023-04-25T12:36:03;5.72;;;2.05;;
22646;SDS011;11490;42.726;23.268;2023-04-25T12:38:36;3.17;;;2.17;;
22646;SDS011;11490;42.726;23.268;2023-04-25T12:41:03;1.48;;;1.33;;
22646;SDS011;11490;42.726;23.268;2023-04-25T12:43:29;1.20;;;1.10;;
22646;SDS011;11490;42.726;23.268;2023-04-25T12:45:55;1.23;;;1.13;;
22646;SDS011;11490;42.726;23.268;2023-04-25T12:48:21;1.80;;;1.52;;
22646;SDS011;11490;42.726;23.268;2023-04-25T12:50:47;3.03;;;1.73;;
22646;SDS011;11490;42.726;23.268;2023-04-25T12:53:14;1.88;;;1.63;;
22646;SDS011;11490;42.726;23.268;2023-04-25T12:55:46;2.10;;;1.63;;
22646;SDS011;11490;42.726;23.268;2023-04-25T12:58:18;3.75;;;2.13;;
22646;SDS011;11490;42.726;23.268;2023-04-25T13:01:05;4.50;;;1.70;;
22646;SDS011;11490;42.726;23.268;2023-04-25T13:03:32;2.85;;;1.90;;
22646;SDS011;11490;42.726;23.268;2023-04-25T13:06:13;4.10;;;2.17;;
22646;SDS011;11490;42.726;23.268;2023-04-25T13:08:43;3.47;;;2.28;;
22646;SDS011;11490;42.726;23.268;2023-04-25T13:11:11;3.08;;;1.80;;
22646;SDS011;11490;42.726;23.268;2023-04-25T13:17:57;1.63;;;1.52;;
22646;SDS011;11490;42.726;23.268;2023-04-25T13:20:35;3.08;;;2.22;;
22646;SDS011;11490;42.726;23.268;2023-04-25T13:23:24;4.95;;;2.40;;
22646;SDS011;11490;42.726;23.268;2023-04-25T13:26:12;3.20;;;2.38;;
22646;SDS011;11490;42.726;23.268;2023-04-25T13:28:45;3.08;;;2.35;;
22646;SDS011;11490;42.726;23.268;2023-04-25T13:31:28;2.25;;;1.98;;
22646;SDS011;11490;42.726;23.268;2023-04-25T13:33:54;2.80;;;2.17;;
22646;SDS011;11490;42.726;23.268;2023-04-25T13:36:20;2.63;;;1.50;;
22646;SDS011;11490;42.726;23.268;2023-04-25T13:38:45;4.20;;;2.83;;
22646;SDS011;11490;42.726;23.268;2023-04-25T13:41:12;5.78;;;2.75;;
22646;SDS011;11490;42.726;23.268;2023-04-25T13:43:42;3.55;;;2.20;;
22646;SDS011;11490;42.726;23.268;2023-04-25T13:46:10;3.67;;;2.15;;
22646;SDS011;11490;42.726;23.268;2023-04-25T13:48:37;4.10;;;3.05;;
22646;SDS011;11490;42.726;23.268;2023-04-25T13:51:03;3.10;;;2.38;;
22646;SDS011;11490;42.726;23.268;2023-04-25T13:53:28;3.20;;;2.20;;
22646;SDS011;11490;42.726;23.268;2023-04-25T13:55:53;3.13;;;2.47;;
22646;SDS011;11490;42.726;23.268;2023-04-25T13:58:19;3.40;;;2.58;;
22646;SDS011;11490;42.726;23.268;2023-04-25T14:00:45;2.40;;;1.95;;
22646;SDS011;11490;42.726;23.268;2023-04-25T14:03:11;2.35;;;1.70;;
22646;SDS011;11490;42.726;23.268;2023-04-25T14:05:52;4.57;;;2.55;;
22646;SDS011;11490;42.726;23.268;2023-04-25T14:08:53;3.63;;;2.25;;
22646;SDS011;11490;42.726;23.268;2023-04-25T14:11:34;2.47;;;1.77;;
22646;SDS011;11490;42.726;23.268;2023-04-25T14:14:22;2.17;;;1.85;;
22646;SDS011;11490;42.726;23.268;2023-04-25T14:16:52;3.65;;;1.95;;
22646;SDS011;11490;42.726;23.268;2023-04-25T14:19:49;2.30;;;2.10;;
22646;SDS011;11490;42.726;23.268;2023-04-25T14:22:47;1.73;;;1.60;;
22646;SDS011;11490;42.726;23.268;2023-04-25T14:25:27;1.80;;;1.60;;
22646;SDS011;11490;42.726;23.268;2023-04-25T14:28:02;2.15;;;1.55;;
22646;SDS011;11490;42.726;23.268;2023-04-25T14:30:35;3.58;;;1.67;;
22646;SDS011;11490;42.726;23.268;2023-04-25T14:33:05;2.58;;;2.10;;
22646;SDS011;11490;42.726;23.268;2023-04-25T14:38:41;3.78;;;2.47;;
22646;SDS011;11490;42.726;23.268;2023-04-25T14:41:09;2.22;;;1.95;;
22646;SDS011;11490;42.726;23.268;2023-04-25T14:43:42;2.75;;;1.80;;
22646;SDS011;11490;42.726;23.268;2023-04-25T14:46:07;2.97;;;1.85;;
22646;SDS011;11490;42.726;23.268;2023-04-25T14:48:35;1.40;;;1.30;;
22646;SDS011;11490;42.726;23.268;2023-04-25T14:51:08;1.63;;;1.40;;
22646;SDS011;11490;42.726;23.268;2023-04-25T14:53:39;2.92;;;1.88;;
22646;SDS011;11490;42.726;23.268;2023-04-25T14:56:12;1.50;;;1.40;;